createdAt,value
2018-03-08T00:00:30.146Z,94.20
2018-03-08T00:03:00.486Z,94.20
2018-03-08T00:05:29.716Z,94.20
2018-03-08T00:07:58.784Z,94.20
2018-03-08T00:10:28.223Z,94.10
2018-03-08T00:12:57.116Z,94.20
2018-03-08T00:15:27.127Z,94.20
2018-03-08T00:17:56.407Z,94.20
2018-03-08T00:20:25.635Z,94.10
2018-03-08T00:22:54.632Z,94.10
2018-03-08T00:25:23.768Z,94.20
2018-03-08T00:27:52.723Z,94.00
2018-03-08T00:30:21.751Z,94.00
2018-03-08T00:32:51.020Z,93.80
2018-03-08T00:35:20.268Z,93.60
2018-03-08T00:37:49.584Z,93.20
2018-03-08T00:40:18.916Z,93.40
2018-03-08T00:42:47.911Z,93.40
2018-03-08T00:45:17.192Z,93.40
2018-03-08T00:47:47.186Z,93.80
2018-03-08T00:50:16.499Z,93.70
2018-03-08T00:52:46.152Z,93.90
2018-03-08T00:55:15.176Z,93.90
2018-03-08T00:57:44.135Z,94.50
2018-03-08T01:00:13.375Z,94.30
2018-03-08T01:02:42.586Z,94.50
2018-03-08T01:05:11.889Z,94.60
2018-03-08T01:07:41.303Z,94.60
2018-03-08T01:10:11.780Z,95.10
2018-03-08T01:12:41.068Z,95.10
2018-03-08T01:15:10.735Z,95.30
2018-03-08T01:17:40.111Z,95.20
2018-03-08T01:20:09.994Z,95.20
2018-03-08T01:22:39.272Z,95.20
2018-03-08T01:25:08.368Z,95.20
2018-03-08T01:27:38.536Z,95.50
2018-03-08T01:30:08.288Z,95.60
2018-03-08T01:32:38.328Z,95.60
2018-03-08T01:35:07.555Z,95.60
2018-03-08T01:37:36.549Z,95.60
2018-03-08T01:40:05.615Z,95.40
2018-03-08T01:42:34.748Z,95.20
2018-03-08T01:45:03.835Z,95.10
2018-03-08T01:47:32.836Z,95.10
2018-03-08T01:50:03.464Z,95.30
2018-03-08T01:52:32.464Z,95.30
2018-03-08T01:55:02.964Z,95.80
2018-03-08T01:57:32.959Z,95.90
2018-03-08T02:00:02.132Z,95.90
2018-03-08T02:02:31.782Z,96.10
2018-03-08T02:05:01.016Z,96.20
2018-03-08T02:07:30.007Z,96.00
2018-03-08T02:09:59.139Z,95.80
2018-03-08T02:12:28.292Z,95.70
2018-03-08T02:14:57.250Z,95.70
2018-03-08T02:17:26.831Z,95.80
2018-03-08T02:19:56.108Z,95.80
2018-03-08T02:22:25.098Z,95.90
2018-03-08T02:24:54.374Z,95.70
2018-03-08T02:27:23.168Z,95.70
2018-03-08T02:29:53.343Z,95.60
2018-03-08T02:32:23.029Z,95.60
2018-03-08T02:34:52.233Z,95.60
2018-03-08T02:37:21.187Z,95.70
2018-03-08T02:39:51.242Z,96.10
2018-03-08T02:42:20.913Z,96.10
2018-03-08T02:44:50.127Z,96.10
2018-03-08T02:47:19.936Z,95.80
2018-03-08T02:49:49.236Z,95.80
2018-03-08T02:52:19.280Z,95.90
2018-03-08T02:54:48.496Z,95.90
2018-03-08T02:57:18.161Z,95.70
2018-03-08T02:59:48.712Z,95.80
2018-03-08T03:02:17.832Z,95.70
2018-03-08T03:04:46.999Z,95.80
2018-03-08T03:07:15.863Z,95.90
2018-03-08T03:09:45.165Z,95.90
2018-03-08T03:12:14.441Z,95.90
2018-03-08T03:14:44.200Z,95.70
2018-03-08T03:17:13.365Z,95.70
2018-03-08T03:19:42.480Z,95.70
2018-03-08T03:22:11.510Z,95.60
2018-03-08T03:24:40.462Z,95.60
2018-03-08T03:27:09.540Z,95.30
2018-03-08T03:29:39.388Z,95.10
2018-03-08T03:32:09.042Z,95.20
2018-03-08T03:34:38.236Z,95.20
2018-03-08T03:37:07.287Z,95.00
2018-03-08T03:39:36.227Z,95.00
2018-03-08T03:42:05.355Z,94.80
2018-03-08T03:44:35.228Z,94.30
2018-03-08T03:47:04.330Z,94.30
2018-03-08T03:49:33.499Z,94.00
2018-03-08T03:52:02.396Z,93.80
2018-03-08T03:54:31.487Z,93.70
2018-03-08T03:57:00.719Z,93.80
2018-03-08T03:59:29.725Z,93.60
2018-03-08T04:01:58.916Z,93.10
2018-03-08T04:04:28.049Z,93.00
2018-03-08T04:06:57.996Z,92.70
2018-03-08T04:09:27.824Z,92.60
2018-03-08T04:11:56.786Z,92.50
2018-03-08T04:14:25.848Z,92.00
2018-03-08T04:16:54.859Z,91.20
2018-03-08T04:19:23.877Z,89.90
2018-03-08T04:21:52.899Z,88.40
2018-03-08T04:24:21.604Z,87.80
2018-03-08T04:26:50.624Z,88.60
2018-03-08T04:29:19.799Z,88.90
2018-03-08T04:31:48.927Z,89.70
2018-03-08T04:34:17.796Z,90.00
2018-03-08T04:36:46.852Z,89.90
2018-03-08T04:39:16.016Z,90.00
2018-03-08T04:41:45.860Z,89.80
2018-03-08T04:44:15.096Z,89.80
2018-03-08T04:46:44.375Z,90.10
2018-03-08T04:49:14.339Z,89.70
2018-03-08T04:51:44.235Z,89.50
2018-03-08T04:54:13.228Z,89.50
2018-03-08T04:56:42.329Z,89.70
2018-03-08T04:59:11.423Z,88.80
2018-03-08T05:01:40.419Z,87.70
2018-03-08T05:04:09.545Z,86.40
2018-03-08T05:06:39.428Z,85.70
2018-03-08T05:09:08.516Z,85.70
2018-03-08T05:11:37.592Z,84.90
2018-03-08T05:14:06.992Z,84.40
2018-03-08T05:16:36.903Z,82.60
2018-03-08T05:19:06.136Z,82.60
2018-03-08T05:21:35.207Z,82.10
2018-03-08T05:24:04.508Z,81.60
2018-03-08T05:26:34.422Z,81.30
2018-03-08T05:29:03.752Z,82.10
2018-03-08T05:31:32.824Z,81.20
2018-03-08T05:34:02.020Z,80.20
2018-03-08T05:36:32.172Z,75.00
2018-03-08T05:39:01.443Z,74.90
2018-03-08T05:41:30.775Z,72.50
2018-03-08T05:43:59.940Z,70.50
2018-03-08T05:46:28.932Z,69.80
2018-03-08T05:48:57.872Z,70.80
2018-03-08T05:51:26.991Z,71.10
2018-03-08T05:53:55.906Z,70.60
2018-03-08T05:56:24.855Z,71.90
2018-03-08T05:58:53.980Z,72.30
2018-03-08T06:01:23.924Z,72.30
2018-03-08T06:03:53.753Z,71.50
2018-03-08T06:06:23.027Z,71.40
2018-03-08T06:08:52.344Z,70.80
2018-03-08T06:11:21.377Z,71.80
2018-03-08T06:13:50.649Z,70.90
2018-03-08T06:16:19.739Z,71.80
2018-03-08T06:18:48.839Z,71.10
2018-03-08T06:21:18.633Z,70.20
2018-03-08T06:23:47.804Z,70.20
2018-03-08T06:26:17.076Z,70.60
2018-03-08T06:28:46.172Z,70.30
2018-03-08T06:31:15.447Z,70.50
2018-03-08T06:33:44.543Z,70.50
2018-03-08T06:36:14.660Z,69.90
2018-03-08T06:38:44.727Z,70.40
2018-03-08T06:41:15.733Z,70.00
2018-03-08T06:43:45.423Z,69.20
2018-03-08T06:46:14.540Z,69.20
2018-03-08T06:48:44.376Z,68.90
2018-03-08T06:51:13.443Z,68.90
2018-03-08T06:53:42.748Z,68.90
2018-03-08T06:56:12.115Z,68.70
2018-03-08T06:58:41.080Z,68.60
2018-03-08T07:01:10.076Z,68.00
2018-03-08T07:03:39.200Z,65.60
2018-03-08T07:06:09.148Z,59.90
2018-03-08T07:08:38.984Z,58.80
2018-03-08T07:11:07.943Z,58.70
2018-03-08T07:13:36.883Z,57.30
2018-03-08T07:16:06.056Z,56.50
2018-03-08T07:18:35.080Z,56.60
2018-03-08T07:21:04.022Z,56.90
2018-03-08T07:23:34.640Z,58.40
2018-03-08T07:26:03.560Z,58.40
2018-03-08T07:28:33.692Z,59.20
2018-03-08T07:31:02.932Z,59.10
2018-03-08T07:33:32.039Z,60.00
2018-03-08T07:36:01.168Z,62.40
2018-03-08T07:38:30.283Z,65.20
2018-03-08T07:41:00.124Z,67.10
2018-03-08T07:43:29.191Z,67.10
2018-03-08T07:45:59.207Z,67.20
2018-03-08T07:48:28.404Z,67.20
2018-03-08T07:50:58.156Z,67.60
2018-03-08T07:53:27.320Z,67.50
2018-03-08T07:55:57.160Z,69.10
2018-03-08T07:58:26.331Z,68.90
2018-03-08T08:00:56.305Z,67.60
2018-03-08T08:03:26.333Z,69.00
2018-03-08T08:06:07.737Z,67.90
2018-03-08T08:09:02.435Z,67.80
2018-03-08T08:11:32.465Z,69.40
2018-03-08T08:14:01.668Z,69.40
2018-03-08T08:16:31.380Z,69.60
2018-03-08T08:19:00.488Z,69.50
2018-03-08T08:21:30.325Z,68.50
2018-03-08T08:23:59.415Z,68.50
2018-03-08T08:26:28.611Z,66.70
2018-03-08T08:28:57.686Z,65.50
2018-03-08T08:31:27.685Z,63.50
2018-03-08T08:33:57.035Z,63.50
2018-03-08T08:36:25.996Z,64.50
2018-03-08T08:38:55.937Z,66.70
2018-03-08T08:41:24.890Z,66.60
2018-03-08T08:43:53.782Z,67.90
2018-03-08T08:46:22.765Z,67.10
2018-03-08T08:48:51.861Z,68.40
2018-03-08T08:51:21.742Z,69.10
2018-03-08T08:53:51.007Z,69.00
2018-03-08T08:56:20.008Z,67.90
2018-03-08T08:58:48.996Z,68.50
2018-03-08T09:01:18.287Z,66.50
2018-03-08T09:03:48.213Z,66.40
2018-03-08T09:06:17.519Z,66.40
2018-03-08T09:08:47.517Z,67.80
2018-03-08T09:11:16.864Z,67.80
2018-03-08T09:13:45.960Z,69.60
2018-03-08T09:16:15.038Z,69.30
2018-03-08T09:18:45.207Z,70.30
2018-03-08T09:21:15.157Z,71.70
2018-03-08T09:23:45.012Z,72.00
2018-03-08T09:26:14.224Z,72.00
2018-03-08T09:28:43.384Z,73.10
2018-03-08T09:31:13.536Z,73.00
2018-03-08T09:33:42.599Z,73.00
2018-03-08T09:36:11.903Z,73.90
2018-03-08T09:38:41.917Z,75.60
2018-03-08T09:41:11.016Z,75.60
2018-03-08T09:43:40.838Z,74.50
2018-03-08T09:46:09.918Z,74.40
2018-03-08T09:48:39.023Z,76.80
2018-03-08T09:51:08.863Z,78.60
2018-03-08T09:53:38.035Z,78.60
2018-03-08T09:56:07.132Z,80.30
2018-03-08T09:58:36.236Z,79.30
2018-03-08T10:01:06.248Z,80.20
2018-03-08T10:03:35.444Z,80.20
2018-03-08T10:06:05.192Z,81.30
2018-03-08T10:08:34.321Z,81.20
2018-03-08T10:11:03.476Z,80.90
2018-03-08T10:13:32.740Z,81.50
2018-03-08T10:16:02.056Z,80.90
2018-03-08T10:18:31.944Z,75.70
2018-03-08T10:21:01.816Z,77.00
2018-03-08T10:23:31.092Z,76.90
2018-03-08T10:26:00.196Z,79.20
2018-03-08T10:28:29.184Z,77.30
2018-03-08T10:30:58.979Z,78.20
2018-03-08T10:33:28.292Z,80.30
2018-03-08T10:35:57.524Z,79.90
2018-03-08T10:38:26.596Z,79.50
2018-03-08T10:40:55.698Z,80.30
2018-03-08T10:43:25.127Z,79.90
2018-03-08T10:45:54.280Z,82.00
2018-03-08T10:48:23.392Z,83.30
2018-03-08T10:50:53.234Z,84.50
2018-03-08T10:53:22.435Z,84.50
2018-03-08T10:55:51.504Z,86.40
2018-03-08T10:58:20.735Z,86.20
2018-03-08T11:00:55.699Z,87.10
2018-03-08T11:03:43.349Z,86.10
2018-03-08T11:06:18.176Z,86.00
2018-03-08T11:08:48.199Z,86.70
2018-03-08T11:11:17.516Z,86.70
2018-03-08T11:13:47.263Z,88.60
2018-03-08T11:16:16.398Z,88.50
2018-03-08T11:18:45.472Z,90.10
2018-03-08T11:21:14.404Z,90.90
2018-03-08T11:23:43.617Z,91.30
2018-03-08T11:26:12.713Z,91.60
2018-03-08T11:28:42.734Z,92.20
2018-03-08T11:31:11.832Z,92.20
2018-03-08T11:33:40.864Z,92.60
2018-03-08T11:36:09.988Z,92.20
2018-03-08T11:38:39.228Z,91.80
2018-03-08T11:41:09.144Z,93.00
2018-03-08T11:43:38.256Z,93.00
2018-03-08T11:46:07.467Z,93.20
2018-03-08T11:48:36.475Z,93.70
2018-03-08T11:51:05.692Z,94.40
2018-03-08T11:53:35.545Z,95.80
2018-03-08T11:56:06.216Z,96.30
2018-03-08T11:58:35.380Z,96.30
2018-03-08T12:01:05.377Z,97.70
2018-03-08T12:03:34.824Z,98.00
2018-03-08T12:06:04.347Z,97.20
2018-03-08T12:08:33.388Z,96.50
2018-03-08T12:11:03.277Z,97.40
2018-03-08T12:13:33.040Z,98.60
2018-03-08T12:16:03.155Z,99.30
2018-03-08T12:18:32.387Z,99.30
2018-03-08T12:21:01.328Z,99.00
2018-03-08T12:23:30.408Z,99.50
2018-03-08T12:25:59.372Z,99.90
2018-03-08T12:28:28.515Z,99.90
2018-03-08T12:30:58.556Z,99.60
2018-03-08T12:33:28.128Z,99.60
2018-03-08T12:35:57.084Z,99.80
2018-03-08T12:38:25.844Z,99.90
2018-03-08T12:40:55.960Z,99.90
2018-03-08T12:43:25.083Z,99.90
2018-03-08T12:45:54.360Z,99.70
2018-03-08T12:48:23.464Z,99.70
2018-03-08T12:50:53.688Z,99.90
2018-03-08T12:53:22.785Z,99.90
2018-03-08T12:55:53.028Z,99.90
2018-03-08T12:58:22.208Z,99.90
2018-03-08T13:00:51.324Z,99.90
2018-03-08T13:03:20.552Z,99.90
2018-03-08T13:05:49.969Z,99.90
2018-03-08T13:08:18.936Z,99.90
2018-03-08T13:10:47.928Z,99.90
2018-03-08T13:13:17.056Z,99.90
2018-03-08T13:15:46.900Z,99.90
2018-03-08T13:18:16.672Z,99.90
2018-03-08T13:20:46.384Z,99.90
2018-03-08T13:23:15.657Z,99.90
2018-03-08T13:25:44.760Z,99.90
2018-03-08T13:28:13.829Z,99.90
2018-03-08T13:30:43.120Z,99.90
2018-03-08T13:33:13.098Z,99.90
2018-03-08T13:35:42.916Z,99.90
2018-03-08T13:38:11.884Z,99.90
2018-03-08T13:40:40.871Z,99.90
2018-03-08T13:43:09.872Z,99.90
2018-03-08T13:45:39.003Z,99.90
2018-03-08T13:48:07.911Z,99.90
2018-03-08T13:50:37.094Z,99.90
2018-03-08T13:53:06.009Z,99.90
2018-03-08T13:55:35.289Z,99.90
2018-03-08T13:58:05.062Z,99.90
2018-03-08T14:00:34.336Z,99.90
2018-03-08T14:03:03.572Z,99.90
2018-03-08T14:05:32.902Z,99.90
2018-03-08T14:08:02.748Z,99.90
2018-03-08T14:10:32.571Z,99.90
2018-03-08T14:13:01.567Z,99.90
2018-03-08T14:15:30.544Z,99.90
2018-03-08T14:17:59.648Z,99.90
2018-03-08T14:20:28.477Z,99.90
2018-03-08T14:22:57.683Z,99.90
2018-03-08T14:25:26.832Z,99.90
2018-03-08T14:27:55.820Z,99.90
2018-03-08T14:30:25.956Z,99.90
2018-03-08T14:32:55.929Z,99.90
2018-03-08T14:35:25.973Z,99.90
2018-03-08T14:37:55.916Z,99.90
2018-03-08T14:40:25.208Z,99.90
2018-03-08T14:42:55.345Z,99.90
2018-03-08T14:45:24.636Z,99.90
2018-03-08T14:47:53.892Z,99.90
2018-03-08T14:50:22.959Z,99.90
2018-03-08T14:52:52.103Z,99.90
2018-03-08T14:55:20.957Z,99.90
2018-03-08T14:57:51.652Z,99.90
2018-03-08T15:00:21.356Z,99.90
2018-03-08T15:02:50.668Z,99.90
2018-03-08T15:05:20.902Z,99.90
2018-03-08T15:07:50.400Z,99.90
2018-03-08T15:10:19.392Z,99.90
2018-03-08T15:12:49.364Z,99.90
2018-03-08T15:15:19.260Z,99.90
2018-03-08T15:17:48.303Z,99.90
2018-03-08T15:20:17.804Z,99.90
2018-03-08T15:22:47.912Z,99.90
2018-03-08T15:25:17.887Z,99.90
2018-03-08T15:27:47.165Z,99.90
2018-03-08T15:30:16.161Z,99.90
2018-03-08T15:32:45.992Z,99.90
2018-03-08T15:35:15.136Z,99.90
2018-03-08T15:37:44.100Z,99.90
2018-03-08T15:40:13.212Z,99.90
2018-03-08T15:42:42.093Z,99.90
2018-03-08T15:45:11.084Z,99.90
2018-03-08T15:47:40.209Z,99.90
2018-03-08T15:50:10.090Z,99.90
2018-03-08T15:52:39.188Z,99.90
2018-03-08T15:55:08.256Z,99.90
2018-03-08T15:57:38.432Z,99.90
2018-03-08T16:00:08.413Z,99.90
2018-03-08T16:02:37.412Z,99.90
2018-03-08T16:05:06.368Z,99.90
2018-03-08T16:07:41.025Z,99.90
2018-03-08T16:10:40.400Z,99.90
2018-03-08T16:13:10.537Z,99.90
2018-03-08T16:15:42.756Z,99.90
2018-03-08T16:18:11.815Z,99.90
2018-03-08T16:20:41.211Z,99.90
2018-03-08T16:23:11.744Z,99.90
2018-03-08T16:25:41.317Z,99.90
2018-03-08T16:28:11.306Z,99.90
2018-03-08T16:30:40.824Z,99.90
2018-03-08T16:33:10.584Z,99.90
2018-03-08T16:35:40.868Z,99.90
2018-03-08T16:38:10.693Z,99.90
2018-03-08T16:40:39.651Z,99.90
2018-03-08T16:43:10.285Z,99.90
2018-03-08T16:45:39.620Z,99.90
2018-03-08T16:48:08.833Z,99.90
2018-03-08T16:50:38.667Z,99.90
2018-03-08T16:53:08.464Z,99.90
2018-03-08T16:55:37.668Z,99.90
2018-03-08T16:58:06.788Z,99.90
2018-03-08T17:00:37.027Z,99.90
2018-03-08T17:03:06.092Z,99.90
2018-03-08T17:05:36.227Z,99.90
2018-03-08T17:08:05.679Z,99.90
2018-03-08T17:10:36.617Z,99.90
2018-03-08T17:13:06.375Z,99.90
2018-03-08T17:15:36.348Z,99.90
2018-03-08T17:18:06.322Z,99.90
2018-03-08T17:20:35.300Z,99.90
2018-03-08T17:23:04.286Z,99.90
2018-03-08T17:25:33.528Z,99.90
2018-03-08T17:28:02.526Z,99.90
2018-03-08T17:30:32.057Z,99.90
2018-03-08T17:33:01.975Z,99.90
2018-03-08T17:35:31.164Z,99.90
2018-03-08T17:38:01.237Z,99.90
2018-03-08T17:40:31.209Z,99.90
2018-03-08T17:43:01.043Z,99.90
2018-03-08T17:45:29.995Z,99.90
2018-03-08T17:47:59.124Z,99.90
2018-03-08T17:50:28.080Z,99.90
2018-03-08T17:52:57.225Z,99.90
2018-03-08T17:55:27.572Z,99.90
2018-03-08T17:57:56.817Z,99.90
2018-03-08T18:00:25.880Z,99.90
2018-03-08T18:02:54.860Z,99.90
2018-03-08T18:05:24.923Z,99.90
2018-03-08T18:07:54.188Z,99.90
2018-03-08T18:10:24.162Z,99.90
2018-03-08T18:12:54.056Z,99.90
2018-03-08T18:15:23.308Z,99.90
2018-03-08T18:17:52.200Z,99.90
2018-03-08T18:20:22.057Z,99.90
2018-03-08T18:22:51.160Z,99.90
2018-03-08T18:25:20.528Z,99.90
2018-03-08T18:27:49.652Z,99.90
2018-03-08T18:30:18.648Z,99.90
2018-03-08T18:32:47.925Z,99.90
2018-03-08T18:35:18.036Z,99.90
2018-03-08T18:37:49.577Z,99.90
2018-03-08T18:40:20.949Z,99.90
2018-03-08T18:42:50.044Z,99.90
2018-03-08T18:45:20.264Z,99.90
2018-03-08T18:47:49.405Z,99.90
2018-03-08T18:50:18.672Z,99.90
2018-03-08T18:52:47.763Z,99.90
2018-03-08T18:55:18.532Z,99.90
2018-03-08T18:57:47.664Z,99.90
2018-03-08T19:00:17.261Z,99.90
2018-03-08T19:02:47.020Z,99.90
2018-03-08T19:05:18.089Z,99.90
2018-03-08T19:07:47.341Z,99.90
2018-03-08T19:10:16.794Z,99.90
2018-03-08T19:12:46.064Z,99.90
2018-03-08T19:15:15.068Z,99.90
2018-03-08T19:17:44.293Z,99.90
2018-03-08T19:20:13.293Z,99.90
2018-03-08T19:22:42.444Z,99.90
2018-03-08T19:25:12.264Z,99.90
2018-03-08T19:27:41.292Z,99.90
2018-03-08T19:30:10.568Z,99.90
2018-03-08T19:32:39.904Z,99.90
2018-03-08T19:35:08.892Z,99.90
2018-03-08T19:37:37.985Z,99.90
2018-03-08T19:40:07.065Z,99.90
2018-03-08T19:42:36.031Z,99.90
2018-03-08T19:45:04.980Z,99.90
2018-03-08T19:47:35.016Z,99.90
2018-03-08T19:50:04.157Z,99.90
2018-03-08T19:52:33.465Z,99.90
2018-03-08T19:55:03.641Z,99.90
2018-03-08T19:57:33.536Z,99.90
2018-03-08T20:00:02.639Z,99.90
2018-03-08T20:02:32.641Z,99.90
2018-03-08T20:05:01.636Z,99.90
2018-03-08T20:07:30.910Z,99.90
2018-03-08T20:10:00.806Z,99.90
2018-03-08T20:12:30.124Z,99.90
2018-03-08T20:14:59.876Z,99.90
2018-03-08T20:17:29.108Z,99.90
2018-03-08T20:19:58.322Z,99.90
2018-03-08T20:22:27.595Z,99.90
2018-03-08T20:24:56.876Z,99.90
2018-03-08T20:27:25.964Z,99.90
2018-03-08T20:29:55.092Z,99.90
2018-03-08T20:32:24.916Z,99.90
2018-03-08T20:34:53.948Z,99.90
2018-03-08T20:37:22.923Z,99.90
2018-03-08T20:39:52.000Z,99.90
2018-03-08T20:42:20.920Z,99.90
2018-03-08T20:44:50.840Z,99.90
2018-03-08T20:47:20.456Z,99.90
2018-03-08T20:49:50.427Z,99.90
2018-03-08T20:52:19.321Z,99.90
2018-03-08T20:54:48.560Z,99.90
2018-03-08T20:57:17.759Z,99.90
2018-03-08T20:59:46.865Z,99.90
2018-03-08T21:02:17.112Z,99.90
2018-03-08T21:04:46.207Z,99.90
2018-03-08T21:07:15.304Z,99.90
2018-03-08T21:09:44.580Z,99.90
2018-03-08T21:12:13.808Z,99.90
2018-03-08T21:14:42.810Z,99.90
2018-03-08T21:17:11.940Z,99.90
2018-03-08T21:19:41.780Z,99.90
2018-03-08T21:22:11.608Z,99.90
2018-03-08T21:24:40.628Z,99.90
2018-03-08T21:27:09.804Z,99.90
2018-03-08T21:29:38.821Z,99.90
2018-03-08T21:32:07.767Z,99.90
2018-03-08T21:34:36.876Z,99.90
2018-03-08T21:37:06.800Z,99.90
2018-03-08T21:39:36.912Z,99.90
2018-03-08T21:42:06.220Z,99.90
2018-03-08T21:44:36.396Z,99.90
2018-03-08T21:47:06.234Z,99.90
2018-03-08T21:49:35.316Z,99.90
2018-03-08T21:52:05.272Z,99.90
2018-03-08T21:54:35.309Z,99.90
2018-03-08T21:57:04.584Z,99.90
2018-03-08T21:59:34.369Z,99.90
2018-03-08T22:02:03.484Z,99.90
2018-03-08T22:04:32.884Z,99.90
2018-03-08T22:07:02.096Z,99.90
2018-03-08T22:09:31.373Z,99.90
2018-03-08T22:12:00.607Z,99.90
2018-03-08T22:14:29.842Z,99.90
2018-03-08T22:16:58.973Z,99.90
2018-03-08T22:19:28.059Z,99.90
2018-03-08T22:21:56.825Z,99.90
2018-03-08T22:24:25.952Z,99.90
2018-03-08T22:26:55.076Z,99.90
2018-03-08T22:29:24.012Z,99.90
2018-03-08T22:31:53.047Z,99.90
2018-03-08T22:34:22.135Z,99.90
2018-03-08T22:36:51.092Z,99.90
2018-03-08T22:39:20.261Z,99.90
2018-03-08T22:41:50.101Z,99.90
2018-03-08T22:44:19.377Z,99.90
2018-03-08T22:46:48.475Z,99.90
2018-03-08T22:49:17.600Z,99.90
2018-03-08T22:51:46.599Z,99.90
2018-03-08T22:54:15.826Z,99.90
2018-03-08T22:56:44.948Z,99.90
2018-03-08T22:59:13.941Z,99.90
2018-03-08T23:15:20.016Z,99.90
2018-03-08T23:17:49.113Z,99.90
2018-03-08T23:20:19.228Z,99.90
2018-03-08T23:22:48.535Z,99.90
2018-03-08T23:25:18.534Z,99.90
2018-03-08T23:27:47.708Z,99.90
2018-03-08T23:30:16.976Z,99.90
2018-03-08T23:32:46.076Z,99.90
2018-03-08T23:35:15.351Z,99.90
2018-03-08T23:37:44.485Z,99.90
2018-03-08T23:40:13.475Z,99.90
2018-03-08T23:42:42.675Z,99.90
2018-03-08T23:45:11.832Z,99.90
2018-03-08T23:47:40.920Z,99.90
2018-03-08T23:50:09.999Z,99.90
2018-03-08T23:52:39.013Z,99.90
2018-03-08T23:55:07.956Z,99.90
2018-03-08T23:57:37.087Z,99.90
